This is the latest recevied weather packets stored in our database for station/object DL4LAM-15. If no packets are shown the sender has not sent any weather packets the latest 10 day(s).
| Time | Temp. | Humidity | Pressure | Rain* | Wind** | Luminosity | Snow |
|---|---|---|---|---|---|---|---|
| 1777677017 | 12.78° C | 74% | 1022.7 hPa | 0 mm | - | - | - |
| 1777676417 | 13.33° C | 73% | 1022.8 hPa | 0 mm | - | - | - |
| 1777671617 | 15° C | 68% | 1022.9 hPa | 0 mm | - | - | - |
| 1777667118 | 17.22° C | 56% | 1023.1 hPa | 0 mm | - | - | - |
| 1777666817 | 17.22° C | 55% | 1023.1 hPa | 0 mm | - | - | - |
| 1777666517 | 17.78° C | 54% | 1023.1 hPa | 0 mm | - | - | - |
| 1777665617 | 18.33° C | 52% | 1023.1 hPa | 0 mm | - | - | - |
| 1777665322 | 18.33° C | 52% | 1023.2 hPa | 0 mm | - | - | - |
| 1777664718 | 18.33° C | 51% | 1023.2 hPa | 0 mm | - | - | - |
| 1777664418 | 18.89° C | 51% | 1023.2 hPa | 0 mm | - | - | - |
| 1777663517 | 18.89° C | 51% | 1023.2 hPa | 0 mm | - | - | - |
| 1777661117 | 20.56° C | 48% | 1023.1 hPa | 0 mm | - | - | - |
| 1777654218 | 22.22° C | 41% | 1023.4 hPa | 0 mm | - | - | - |
| 1777653617 | 22.78° C | 42% | 1023.5 hPa | 0 mm | - | - | - |
| 1777650917 | 22.78° C | 40% | 1023.9 hPa | 0 mm | - | - | - |
| 1777639517 | 23.33° C | 37% | 1026.3 hPa | 0 mm | - | - | - |
| 1777638617 | 23.33° C | 36% | 1026.5 hPa | 0 mm | - | - | - |
| 1777635617 | 22.78° C | 38% | 1027 hPa | 0 mm | - | - | - |
| 1777633517 | 21.67° C | 37% | 1027.3 hPa | 0 mm | - | - | - |
| 1777632317 | 21.67° C | 39% | 1027.7 hPa | 0 mm | - | - | - |
| 1777632017 | 21.67° C | 38% | 1027.7 hPa | 0 mm | - | - | - |
| 1777630817 | 21.67° C | 39% | 1027.8 hPa | 0 mm | - | - | - |
| 1777630537 | 22.22° C | 38% | 1027.9 hPa | 0 mm | - | - | - |
| 1777630217 | 22.22° C | 39% | 1027.9 hPa | 0 mm | - | - | - |
| 1777629617 | 21.67° C | 40% | 1028.1 hPa | 0 mm | - | - | - |
* Rain latest hour (hover to see other rain measurements)
** Current wind speed in m/s (hover to see current wind gust speed)